Record high temperature 100.8°F Record low temperature -75.5°F Record high gust 121.0 mph Record high average 61.8 mph Record daily rain 2.61 in. Record low windchill -106.6°F Record high barometer 31.889 in. Record low barometer 23.642 in.
Daily high pressure 30.261 in. Daily low pressure 30.189 in. Daily low windchill 54.5°F Daily high heat index 70.1°F Daily high gust speed 6.3 mph SE Daily high average speed 3.3 mph SE
Weather Data
LAST READING AT TIME: 11:00 AM DATE: August 27 2014, time of next update: 11:10 am
Current WeatherDry Current Temperature 70.1°F (21.2°C) (Heat Index 70.1°F ), Apparent temp 72.5°F
Maximum Temperature (since midnight)70.1°F at: 10:58 AM Minimum Temperature (since midnight)54.5°F at: 5:06 AM
Average windspeed (ten minute)0.7 mph Wind Direction (ten minute)SE (126°)
Heat Index 70.1°F Maximum Gust (last hour)5.2 mph at: 10:33 AM
Maximum Gust (since midnight)6.3 mph at: 8:05 AM Maximum 1 minute average (since midnight)3.3 mph at: 9:53 AM
Rainfall (last hour)0.00 in. (0.0 mm) Rainfall (since midnight)0.00 in. (0.0 mm) ---
Rainfall This month 2.70 in. (68.5 mm) Rainfall To date this year 6.40 in. (162.6 mm)
Maximum rain per minute (last hour)0.00 in/min Maximum rain per hour (last 6 hours)0.00 in/hour
Yesterdays rainfall 0.00 in DewPoint 56.9°F (Wet Bulb :62.4°F )
Humidity 63 %, Humidex 76.0°F Barometer corrected to msl30.213 in. (1023.1 hPa)
Pressure change -0.01 in. (last hour) Trend (last hour)STEADY
Pressure change (last 12 hours)-0.05 in Pressure change (last 6 hours)+0.01 in

This page is updated from recent data collected by a DAVIS WMII weather station Use the Reload or Refresh facility on your browser to retrieve the latest data.


Click here for the last 24 hour graph
Click here for the last 48 hour graph
Click here for the last 72 hour graph
Click here for the month to date graph


Weather report/warning/Metars

COLORADO SPRINGS MUNI, CO, United States (KCOS) 38-49N 104-43W 1856M
Aug 27, 2014 - 12:37 PM EDT / 2014.08.27 1637 UTC
Wind: from the NW (320 degrees) at 5 MPH (4 KT):0
Visibility: 10 mile(s):0
Sky conditions: mostly cloudy
Temperature: 66.0 F (18.9 C)
Dew Point: 55.0 F (12.8 C)
Relative Humidity: 67%
Pressure (altimeter): 30.25 in. Hg (1024 hPa)
ob: KCOS 271637Z 32004KT 10SM SCT015 BKN200 19/13 A3025 RMK AO2 T01890128
cycle: 16
Air Force Academy, CO, United States (KAFF) 38-58N 104-49W 1999M
Aug 27, 2014 - 12:39 PM EDT / 2014.08.27 1639 UTC
Wind: from the SSE (160 degrees) at 6 MPH (5 KT):0
Visibility: 10 mile(s):0
Sky conditions: partly cloudy
Temperature: 64 F (18 C)
Dew Point: 55 F (13 C)
Relative Humidity: 72%
Pressure (altimeter): 30.25 in. Hg (1024 hPa)
ob: KAFF 271639Z 16005KT 10SM FEW011 SCT017 18/13 A3025
cycle: 16
Fort Carson, CO, United States (KFCS) 38-42N 104-46W 1789M
Aug 27, 2014 - 12:08 PM EDT / 2014.08.27 1608 UTC
Wind: Variable at 2 MPH (2 KT):0
Visibility: 10 mile(s):0
Sky conditions: partly cloudy
Temperature: 64 F (18 C)
Dew Point: 55 F (13 C)
Relative Humidity: 72%
Pressure (altimeter): 30.22 in. Hg (1023 hPa)
ob: KFCS 271608Z AUTO VRB02KT 10SM FEW013 SCT019 18/13 A3022 RMK AO2
cycle: 16



The data is logged at two minute intervals, but there is data recorded every minute. Best viewed in 800 x 600 and True colour.

Use the RELOAD facility on your browser to retrieve the latest data.

Click here for a daily update of the averages/extremes to date for the month
Created by "Weather Display" software version 10.37R Build 78 at this start time/date 03:30 am 8/16/2014